Time;durP1;ratioP1;P1;durP2;ratioP2;P2;SDS_P1;SDS_P2;PMS_P1;PMS_P2;Temp;Humidity;BMP_temperature;BMP_pressure;BME280_temperature;BME280_humidity;BME280_pressure;Samples;Min_cycle;Max_cycle;Signal;HPM_P1;HPM_P2
2021/07/03 00:02:00;;;;;;;4.07;2.35;;;;;;;24.60;44.58;99846.09;5094165;28;20048;-81
2021/07/03 00:09:03;;;;;;;5.90;2.53;;;;;;;24.20;45.40;99845.31;5094116;28;20447;-81
2021/07/03 00:11:30;;;;;;;3.85;2.35;;;;;;;25.28;43.42;99847.91;5093096;28;20048;-81
2021/07/03 00:13:57;;;;;;;13.15;4.85;;;;;;;24.88;44.53;99849.06;5092676;28;20574;-81
2021/07/03 00:20:51;;;;;;;5.95;2.70;;;;;;;25.37;44.07;99851.34;5094062;28;20062;-81
2021/07/03 00:23:18;;;;;;;8.20;2.80;;;;;;;25.65;43.50;99847.03;5076006;28;20501;-82
2021/07/03 00:30:21;;;;;;;4.45;3.55;;;;;;;25.61;43.74;99846.56;5094670;28;20093;-81
2021/07/03 00:32:48;;;;;;;5.32;3.63;;;;;;;25.64;43.75;99844.56;5076511;28;20044;-81
2021/07/03 00:35:15;;;;;;;4.63;2.95;;;;;;;25.66;43.67;99842.50;5094291;28;20044;-82
2021/07/03 00:37:42;;;;;;;10.30;2.72;;;;;;;25.52;44.30;99842.34;5092798;28;20119;-80
2021/07/03 00:40:10;;;;;;;7.35;2.78;;;;;;;25.45;44.35;99838.72;5075487;28;20103;-81
2021/07/03 00:42:37;;;;;;;6.15;2.80;;;;;;;25.54;44.21;99845.66;5093840;28;20090;-81
2021/07/03 00:45:06;;;;;;;6.97;2.78;;;;;;;25.58;43.92;99841.59;5092096;28;20043;-81
2021/07/03 00:51:33;;;;;;;4.38;3.17;;;;;;;25.43;43.61;99846.09;5095255;28;20127;-81
2021/07/03 00:54:02;;;;;;;7.60;2.45;;;;;;;23.91;47.14;99851.25;5076404;28;20480;-81
2021/07/03 01:00:13;;;;;;;5.00;2.50;;;;;;;25.42;43.74;99852.44;5088470;28;20059;-81
2021/07/03 01:06:40;;;;;;;3.33;1.92;;;;;;;24.88;44.46;99857.91;5098176;28;20054;-81
2021/07/03 01:09:07;;;;;;;3.63;2.55;;;;;;;25.16;44.24;99858.19;5080442;28;20390;-81
2021/07/03 01:11:33;;;;;;;3.22;1.92;;;;;;;25.41;43.47;99866.81;5096741;28;20040;-81
2021/07/03 01:14:02;;;;;;;3.97;2.42;;;;;;;25.43;43.33;99867.44;5079357;28;20058;-81
2021/07/03 01:16:29;;;;;;;4.93;2.40;;;;;;;25.53;43.08;99872.53;5079885;28;20052;-81
2021/07/03 01:22:56;;;;;;;4.78;2.25;;;;;;;25.52;42.41;99879.69;5098394;28;20116;-81
2021/07/03 01:25:25;;;;;;;8.38;2.17;;;;;;;25.61;42.10;99881.25;5080067;28;20040;-82
2021/07/03 01:28:05;;;;;;;3.90;1.80;;;;;;;25.56;41.99;99875.63;5098207;28;20458;-81
2021/07/03 01:30:38;;;;;;;;;;;;;;;25.53;41.75;99869.84;5098493;28;20044;-81
2021/07/03 01:37:33;;;;;;;10.88;1.80;;;;;;;25.47;41.19;99854.56;5097354;28;20436;-81
2021/07/03 01:44:01;;;;;;;3.90;1.73;;;;;;;25.58;40.45;99846.94;5098339;28;20059;-81
2021/07/03 01:46:28;;;;;;;3.97;1.65;;;;;;;25.44;40.72;99849.59;5080044;28;20067;-81
2021/07/03 01:52:56;;;;;;;3.38;1.95;;;;;;;25.46;41.41;99852.88;5100150;28;20050;-83
2021/07/03 01:59:31;;;;;;;5.28;2.42;;;;;;;24.27;45.83;99856.91;5102782;28;20141;-83
2021/07/03 02:02:04;;;;;;;4.57;2.60;;;;;;;24.58;44.82;99862.25;5095097;28;20094;-82
2021/07/03 02:09:13;;;;;;;3.88;2.25;;;;;;;23.76;47.28;99865.28;5107264;28;20088;-83
2021/07/03 02:15:42;;;;;;;7.38;4.38;;;;;;;23.93;47.02;99863.41;5115145;28;20058;-82
2021/07/03 02:18:19;;;;;;;5.38;2.85;;;;;;;24.45;46.19;99860.19;5106713;28;20040;-82
2021/07/03 02:25:13;;;;;;;5.88;3.90;;;;;;;23.52;48.46;99867.97;5096567;28;20042;-82
2021/07/03 02:27:49;;;;;;;8.43;2.72;;;;;;;23.22;49.31;99872.16;5082238;28;20108;-82
2021/07/03 02:30:19;;;;;;;3.88;2.55;;;;;;;23.73;47.58;99878.91;5085680;28;20048;-83
2021/07/03 02:32:49;;;;;;;3.63;2.35;;;;;;;23.37;47.29;99881.13;5118975;28;20107;-83
2021/07/03 02:35:19;;;;;;;4.25;2.05;;;;;;;23.00;47.93;99890.44;5102353;28;20103;-83
2021/07/03 02:41:46;;;;;;;4.32;2.22;;;;;;;22.87;48.53;99886.56;5096385;28;20042;-81
2021/07/03 02:44:14;;;;;;;4.55;3.40;;;;;;;22.80;49.27;99882.91;5094739;28;20044;-81
2021/07/03 02:50:41;;;;;;;4.55;2.35;;;;;;;23.78;46.84;99895.22;5095592;28;20055;-81
2021/07/03 02:57:09;;;;;;;2.97;2.10;;;;;;;24.10;46.04;99897.94;5095846;28;20059;-81
2021/07/03 02:59:36;;;;;;;4.18;2.30;;;;;;;24.54;44.62;99888.44;5095261;28;20052;-81
2021/07/03 03:06:03;;;;;;;5.13;2.10;;;;;;;24.19;45.38;99886.25;5095718;28;20126;-81
2021/07/03 03:17:03;;;;;;;3.38;1.90;;;;;;;23.67;46.75;99903.56;5095520;28;20051;-81
2021/07/03 03:23:30;;;;;;;8.57;3.20;;;;;;;23.85;47.33;99895.34;5094495;28;20039;-81
2021/07/03 03:25:58;;;;;;;6.55;2.42;;;;;;;23.30;48.70;99904.06;5093535;28;20127;-81
2021/07/03 03:28:30;;;;;;;4.10;2.15;;;;;;;22.96;49.59;99901.59;5093246;28;20040;-81
2021/07/03 03:30:58;;;;;;;7.10;2.00;;;;;;;22.79;49.83;99902.50;5076593;28;20043;-81
2021/07/03 03:37:58;;;;;;;2.75;1.83;;;;;;;24.48;45.42;99897.13;5094728;28;20054;-80
2021/07/03 03:40:30;;;;;;;2.90;2.22;;;;;;;24.22;46.24;99899.22;5093708;28;20036;-81
2021/07/03 03:42:57;;;;;;;2.63;2.30;;;;;;;24.13;46.70;99900.25;5076861;28;20036;-80
2021/07/03 03:49:53;;;;;;;4.93;2.45;;;;;;;23.40;49.20;99898.59;5094344;28;20039;-81
2021/07/03 03:52:21;;;;;;;6.63;2.20;;;;;;;24.02;47.31;99899.66;5093315;28;20079;-81
2021/07/03 03:58:49;;;;;;;2.72;2.00;;;;;;;23.54;49.06;99892.56;5094561;28;20055;-81
2021/07/03 04:05:21;;;;;;;3.90;2.00;;;;;;;24.55;46.28;99887.44;5095058;28;20055;-81
2021/07/03 04:07:52;;;;;;;14.57;2.80;;;;;;;23.44;49.66;99887.44;5092960;28;20044;-81
2021/07/03 04:14:56;;;;;;;4.63;3.13;;;;;;;24.70;46.20;99882.16;5094191;28;20061;-81
2021/07/03 04:17:25;;;;;;;8.95;4.65;;;;;;;24.38;47.50;99885.84;5093920;28;20056;-81
2021/07/03 04:19:53;;;;;;;5.03;3.78;;;;;;;23.96;48.27;99894.97;5093821;28;20052;-81
2021/07/03 04:22:20;;;;;;;7.60;5.10;;;;;;;24.32;48.00;99894.50;5094123;28;20115;-81
2021/07/03 04:24:47;;;;;;;7.47;5.65;;;;;;;23.77;50.00;99895.41;5094228;28;20119;-81
2021/07/03 04:28:04;;;;;;;19.00;6.30;;;;;;;23.90;49.67;99893.00;5093829;28;20048;-82
2021/07/03 04:30:31;;;;;;;8.65;3.47;;;;;;;24.46;47.31;99887.66;5075749;28;20417;-81
2021/07/03 04:32:59;;;;;;;5.05;3.05;;;;;;;24.97;45.89;99888.81;5076164;28;20343;-81
2021/07/03 04:35:27;;;;;;;12.52;3.80;;;;;;;24.76;46.54;99897.44;5075776;28;20040;-81
2021/07/03 04:42:32;;;;;;;4.65;3.10;;;;;;;24.59;47.22;99909.22;5094025;28;20042;-80
2021/07/03 04:44:59;;;;;;;7.78;3.00;;;;;;;24.69;47.28;99909.81;5092467;28;20047;-80
2021/07/03 04:51:56;;;;;;;11.45;4.00;;;;;;;24.53;48.47;99908.09;5093935;28;20077;-81
2021/07/03 04:54:24;;;;;;;8.30;4.85;;;;;;;24.17;48.58;99915.72;5076618;28;20094;-83
2021/07/03 04:56:51;;;;;;;7.28;4.57;;;;;;;23.43;50.82;99923.00;5093557;28;20044;-81
2021/07/03 04:59:20;;;;;;;7.88;4.30;;;;;;;23.30;51.44;99927.19;5075844;28;20054;-81
2021/07/03 05:01:47;;;;;;;6.53;3.35;;;;;;;23.48;50.58;99925.97;5092326;28;20126;-81
2021/07/03 05:04:14;;;;;;;7.93;4.10;;;;;;;23.13;52.67;99929.84;5075472;28;20437;-82
2021/07/03 05:06:41;;;;;;;7.05;5.00;;;;;;;23.16;51.85;99928.66;5075901;28;20050;-81
2021/07/03 05:13:07;;;;;;;6.55;4.40;;;;;;;23.16;51.39;99931.31;5093512;28;20067;-81
2021/07/03 05:15:34;;;;;;;13.73;4.40;;;;;;;22.96;52.29;99925.50;5075666;28;20040;-81
2021/07/03 05:22:37;;;;;;;6.72;4.90;;;;;;;23.47;52.39;99918.19;5093963;28;20051;-82
2021/07/03 05:25:06;;;;;;;10.23;3.72;;;;;;;23.48;52.86;99919.84;5092274;28;20048;-82
2021/07/03 05:27:33;;;;;;;12.13;4.22;;;;;;;23.31;53.13;99928.84;5093807;28;20040;-81
2021/07/03 05:30:00;;;;;;;7.15;2.60;;;;;;;24.41;49.06;99922.81;5075379;28;20036;-81
2021/07/03 05:32:26;;;;;;;5.05;3.63;;;;;;;24.71;49.72;99914.97;5092101;28;20115;-81
2021/07/03 05:38:53;;;;;;;13.98;4.85;;;;;;;23.49;53.29;99930.34;5093514;28;20468;-83
2021/07/03 05:41:20;;;;;;;9.35;6.15;;;;;;;24.03;51.86;99935.91;5091908;28;20036;-83
2021/07/03 05:43:47;;;;;;;11.10;5.82;;;;;;;24.05;52.03;99939.22;5093733;28;20036;-83
2021/07/03 05:46:14;;;;;;;6.93;5.43;;;;;;;24.31;51.26;99935.47;5095999;28;20123;-83
2021/07/03 05:48:43;;;;;;;7.80;4.72;;;;;;;23.81;51.54;99939.31;5095996;28;20067;-83
2021/07/03 05:55:46;;;;;;;15.52;6.50;;;;;;;23.45;52.54;99947.63;5097113;28;20112;-82
2021/07/03 05:58:13;;;;;;;16.85;7.28;;;;;;;23.58;52.49;99946.28;5096083;28;20044;-81
2021/07/03 06:00:40;;;;;;;12.23;6.82;;;;;;;23.96;51.80;99953.56;5078466;28;20471;-82
2021/07/03 06:03:07;;;;;;;8.85;6.45;;;;;;;23.89;51.72;99949.09;5095468;28;20124;-81
2021/07/03 06:10:11;;;;;;;18.55;11.73;;;;;;;23.74;51.85;99956.94;5096317;28;20155;-79
2021/07/03 06:16:37;;;;;;;15.02;9.32;;;;;;;24.10;51.13;99957.34;5096754;28;20050;-81
2021/07/03 06:19:04;;;;;;;15.45;9.60;;;;;;;24.12;50.86;99957.16;5078499;28;20433;-80
2021/07/03 06:26:07;;;;;;;14.60;8.57;;;;;;;24.37;50.08;99948.13;5095991;28;20097;-80
2021/07/03 06:28:34;;;;;;;15.43;6.32;;;;;;;25.11;48.41;99953.09;5095902;28;20044;-79
2021/07/03 06:31:01;;;;;;;15.07;5.90;;;;;;;24.98;48.33;99951.81;5094609;28;20123;-79
2021/07/03 06:33:28;;;;;;;6.20;4.72;;;;;;;25.42;47.58;99953.00;5095858;28;20424;-79
2021/07/03 06:35:55;;;;;;;7.57;5.35;;;;;;;25.67;47.02;99949.09;5094645;28;20089;-80
2021/07/03 06:38:22;;;;;;;5.22;4.63;;;;;;;25.38;47.88;99952.53;5095929;28;20130;-79
2021/07/03 06:40:49;;;;;;;11.68;5.78;;;;;;;24.88;48.77;99945.06;5095616;28;20119;-79
2021/07/03 06:47:16;;;;;;;11.40;4.20;;;;;;;25.71;46.91;99938.88;5096344;28;20161;-81
2021/07/03 06:49:43;;;;;;;6.65;5.07;;;;;;;25.31;48.05;99944.44;5095864;28;20493;-81
2021/07/03 06:52:11;;;;;;;7.97;4.40;;;;;;;25.42;47.76;99940.50;5095420;28;20127;-80
2021/07/03 06:54:39;;;;;;;11.55;6.30;;;;;;;25.00;49.11;99938.28;5094416;28;20135;-80
2021/07/03 06:57:08;;;;;;;7.70;4.85;;;;;;;25.42;48.39;99939.69;5094314;28;20394;-81
2021/07/03 06:59:36;;;;;;;9.60;4.93;;;;;;;25.59;48.04;99938.50;5095442;28;20072;-80
2021/07/03 07:02:03;;;;;;;6.22;5.28;;;;;;;25.74;47.56;99935.88;5095498;28;20069;-81
2021/07/03 07:09:06;;;;;;;12.35;9.85;;;;;;;24.71;49.66;99933.63;5095737;28;20047;-80
2021/07/03 07:11:33;;;;;;;20.13;9.55;;;;;;;25.03;48.64;99937.94;5095559;28;20048;-79
2021/07/03 07:17:59;;;;;;;10.32;7.10;;;;;;;25.21;48.30;99935.00;5095770;28;20089;-79
2021/07/03 07:24:26;;;;;;;11.90;5.15;;;;;;;25.54;47.04;99933.72;5095137;28;20085;-80
2021/07/03 07:26:54;;;;;;;7.15;6.45;;;;;;;25.62;46.87;99932.81;5093907;28;20117;-79
2021/07/03 07:29:21;;;;;;;15.60;6.57;;;;;;;25.74;47.03;99934.06;5077164;28;20035;-80
2021/07/03 07:32:40;;;;;;;13.43;6.07;;;;;;;25.67;47.49;99937.59;5094594;28;20074;-80
2021/07/03 07:39:34;;;;;;;14.77;12.23;;;;;;;24.46;50.89;99936.44;5094751;28;20043;-79
2021/07/03 07:42:03;;;;;;;18.13;10.38;;;;;;;25.00;49.10;99931.13;5076556;28;20063;-79
2021/07/03 07:44:30;;;;;;;11.73;10.35;;;;;;;24.80;49.22;99937.91;5075809;28;20113;-80
2021/07/03 07:46:57;;;;;;;20.70;9.43;;;;;;;24.94;49.40;99933.69;5094548;28;20036;-80
2021/07/03 07:49:25;;;;;;;9.00;8.13;;;;;;;24.90;48.80;99943.03;5076527;28;20066;-79
2021/07/03 07:56:18;;;;;;;8.63;5.90;;;;;;;25.72;46.51;99944.03;5094508;28;20117;-80
2021/07/03 07:58:46;;;;;;;7.18;6.47;;;;;;;25.25;46.98;99952.31;5094138;28;20044;-80
2021/07/03 08:05:13;;;;;;;9.25;4.75;;;;;;;25.64;46.15;99948.66;5094439;28;20552;-78
2021/07/03 08:11:39;;;;;;;6.88;4.75;;;;;;;26.02;44.73;99954.78;5094147;28;20097;-81
2021/07/03 08:14:06;;;;;;;9.40;5.43;;;;;;;25.83;44.66;99956.16;5076421;28;20040;-82
2021/07/03 08:16:33;;;;;;;8.65;4.13;;;;;;;25.31;45.76;99962.28;5094199;28;20082;-82
2021/07/03 08:19:01;;;;;;;4.90;4.15;;;;;;;25.42;45.61;99958.34;5092689;28;20093;-79
2021/07/03 08:21:28;;;;;;;6.35;3.30;;;;;;;25.95;44.63;99954.69;5076522;28;20422;-85
2021/07/03 08:23:55;;;;;;;12.40;5.60;;;;;;;25.49;44.63;99956.63;5093970;28;20115;-78
2021/07/03 08:26:22;;;;;;;6.32;4.00;;;;;;;25.66;44.36;99959.97;5092996;28;20044;-77
2021/07/03 08:28:49;;;;;;;8.10;3.58;;;;;;;25.88;44.36;99947.59;5075722;28;20060;-76
2021/07/03 08:31:16;;;;;;;4.55;3.95;;;;;;;25.82;43.62;99946.47;5092555;28;20127;-87
2021/07/03 08:37:43;;;;;;;8.35;3.58;;;;;;;26.03;43.39;99945.75;5107459;28;20074;-76
2021/07/03 08:44:12;;;;;;;7.35;3.70;;;;;;;25.97;44.41;99941.16;5097469;28;20063;-80
2021/07/03 08:46:45;;;;;;;11.82;3.92;;;;;;;26.03;44.45;99941.25;5095271;28;20044;-76
2021/07/03 08:53:38;;;;;;;8.25;4.68;;;;;;;26.26;44.38;99941.16;5093709;28;20055;-77
2021/07/03 08:56:05;;;;;;;7.30;4.53;;;;;;;26.16;44.57;99937.94;5092382;28;20123;-80
2021/07/03 08:58:32;;;;;;;14.10;5.13;;;;;;;26.21;43.54;99934.72;5092393;28;20044;-79
2021/07/03 09:08:59;;;;;;;12.45;5.05;;;;;;;26.53;44.32;99922.81;5094063;28;20113;-78
2021/07/03 09:11:26;;;;;;;7.70;5.90;;;;;;;26.41;44.29;99933.09;5075455;28;20098;-79
2021/07/03 09:14:02;;;;;;;11.88;5.68;;;;;;;26.47;44.31;99927.03;5092145;28;20074;-79
2021/07/03 09:21:08;;;;;;;7.47;4.88;;;;;;;26.66;44.27;99920.28;5095267;28;20110;-78
2021/07/03 09:23:38;;;;;;;13.38;6.30;;;;;;;26.55;44.61;99920.78;5079016;28;20560;-78
2021/07/03 09:30:32;;;;;;;11.75;5.03;;;;;;;26.98;43.18;99913.63;5097320;28;20051;-78
2021/07/03 09:32:59;;;;;;;9.40;4.65;;;;;;;27.17;43.42;99914.88;5096465;28;20044;-78
2021/07/03 09:35:26;;;;;;;8.48;4.68;;;;;;;26.59;43.35;99924.75;5096881;28;20066;-80
2021/07/03 09:38:01;;;;;;;12.45;5.35;;;;;;;26.82;42.85;99930.75;5096927;28;20032;-78
2021/07/03 09:40:31;;;;;;;9.52;4.50;;;;;;;26.79;43.02;99928.47;5097191;28;20040;-78
2021/07/03 09:43:11;;;;;;;10.00;5.00;;;;;;;26.97;42.63;99927.19;5097005;28;20066;-78
2021/07/03 09:45:40;;;;;;;10.27;4.88;;;;;;;27.28;42.83;99924.22;5097047;28;20169;-77
2021/07/03 09:52:07;;;;;;;9.20;5.60;;;;;;;27.49;43.63;99918.84;5096922;28;20075;-80
2021/07/03 09:54:34;;;;;;;10.65;5.57;;;;;;;27.58;43.69;99923.00;5078196;28;20070;-79
2021/07/03 10:00:38;;;;;;;9.65;4.05;;;;;;;27.90;42.32;99918.09;5096717;28;20085;-79
2021/07/03 10:07:16;;;;;;;11.02;6.88;;;;;;;27.71;42.94;99916.16;5092955;28;20046;-80
2021/07/03 10:09:48;;;;;;;10.30;4.60;;;;;;;27.84;41.56;99906.31;5095121;28;20048;-80
2021/07/03 10:12:22;;;;;;;7.18;4.93;;;;;;;27.88;41.74;99893.38;5078652;28;20051;-80
2021/07/03 10:14:49;;;;;;;11.75;4.25;;;;;;;28.08;41.54;99893.47;5078494;28;20048;-81
2021/07/03 10:17:24;;;;;;;16.92;6.00;;;;;;;27.87;41.92;99883.69;5096081;28;20387;-82
2021/07/03 10:24:20;;;;;;;9.00;4.82;;;;;;;27.55;42.51;99882.44;5096695;28;20043;-81
2021/07/03 10:26:50;;;;;;;10.38;4.55;;;;;;;27.51;42.14;99868.59;5096266;28;20427;-80
2021/07/03 10:29:20;;;;;;;6.63;4.78;;;;;;;27.51;42.32;99865.91;5078145;28;20063;-81
2021/07/03 10:31:49;;;;;;;13.30;5.35;;;;;;;27.60;41.97;99859.41;5095313;28;20079;-80
2021/07/03 10:38:17;;;;;;;6.25;4.10;;;;;;;28.00;41.20;99858.81;5095685;28;20105;-80
2021/07/03 10:44:43;;;;;;;10.70;4.35;;;;;;;28.24;42.04;99860.16;5095353;28;20131;-78
2021/07/03 10:47:12;;;;;;;24.85;6.53;;;;;;;28.35;41.57;99857.75;5094098;28;20463;-78
2021/07/03 10:49:40;;;;;;;5.55;4.70;;;;;;;28.31;41.51;99861.81;5095121;28;20498;-80
2021/07/03 10:52:16;;;;;;;5.50;4.60;;;;;;;28.33;41.80;99858.97;5095909;28;20067;-79
2021/07/03 10:54:44;;;;;;;8.70;4.70;;;;;;;28.17;41.47;99860.94;5093827;28;20058;-80
2021/07/03 10:57:11;;;;;;;9.63;4.40;;;;;;;28.19;41.60;99863.44;5094126;28;20054;-80
2021/07/03 10:59:43;;;;;;;7.65;4.40;;;;;;;28.22;41.08;99846.94;5095724;28;20040;-79
2021/07/03 11:10:28;;;;;;;7.95;4.35;;;;;;;28.11;40.82;99842.97;5095673;28;20065;-79
2021/07/03 11:16:58;;;;;;;7.38;3.83;;;;;;;28.41;41.25;99835.50;5095602;28;20098;-78
2021/07/03 11:19:28;;;;;;;7.25;4.95;;;;;;;28.39;40.82;99839.38;5093945;28;20486;-79
2021/07/03 11:26:33;;;;;;;11.00;4.10;;;;;;;28.57;41.10;99834.28;5096466;28;20517;-78
2021/07/03 11:29:02;;;;;;;6.40;4.10;;;;;;;28.66;41.06;99825.03;5078747;28;20535;-77
2021/07/03 11:31:29;;;;;;;9.23;3.80;;;;;;;28.86;40.24;99826.88;5095212;28;20494;-76
2021/07/03 11:37:56;;;;;;;7.45;3.33;;;;;;;28.71;40.42;99809.16;5097338;28;20047;-77
2021/07/03 11:40:28;;;;;;;9.27;4.40;;;;;;;28.57;40.63;99812.03;5096998;28;20072;-76
2021/07/03 11:43:01;;;;;;;11.93;5.28;;;;;;;29.04;39.93;99805.69;5096216;28;20090;-77
2021/07/03 11:45:31;;;;;;;14.80;4.18;;;;;;;29.12;39.72;99799.25;5097975;28;20102;-76
2021/07/03 11:48:10;;;;;;;7.63;3.58;;;;;;;29.18;39.83;99799.25;5098483;28;20044;-77
2021/07/03 11:50:44;;;;;;;12.13;3.10;;;;;;;29.33;39.48;99796.34;5096511;28;20048;-77
2021/07/03 11:53:13;;;;;;;5.70;3.60;;;;;;;29.14;38.89;99797.22;5095323;28;20059;-77
2021/07/03 11:55:45;;;;;;;7.90;3.60;;;;;;;29.07;39.46;99783.78;5088691;28;20119;-77
2021/07/03 11:58:17;;;;;;;8.80;3.15;;;;;;;29.10;40.33;99788.75;5088107;28;20044;-78
2021/07/03 12:00:48;;;;;;;3.45;2.95;;;;;;;28.91;40.21;99787.69;5104868;28;20048;-77
2021/07/03 12:03:16;;;;;;;12.20;3.92;;;;;;;29.18;40.14;99783.13;5104266;28;20036;-77
2021/07/03 12:13:52;;;;;;;4.47;2.88;;;;;;;29.19;39.55;99765.19;5103001;28;20047;-77
2021/07/03 12:16:21;;;;;;;4.05;2.60;;;;;;;29.14;39.74;99765.84;5093745;28;20066;-76
2021/07/03 12:18:53;;;;;;;3.70;3.03;;;;;;;29.19;39.60;99757.97;5094135;28;20079;-77
2021/07/03 12:25:51;;;;;;;7.32;3.30;;;;;;;29.15;38.82;99761.28;5094267;28;20047;-81
2021/07/03 12:28:21;;;;;;;12.35;3.28;;;;;;;29.17;39.16;99754.66;5094163;28;20040;-85
2021/07/03 12:35:33;;;;;;;8.75;2.83;;;;;;;29.60;38.27;99740.72;5099496;28;20054;-83
2021/07/03 12:38:01;;;;;;;6.65;3.85;;;;;;;29.34;37.96;99738.91;5075766;28;20127;-82
2021/07/03 12:40:33;;;;;;;4.88;3.03;;;;;;;29.25;38.77;99731.34;5094120;28;20390;-83
2021/07/03 12:43:01;;;;;;;3.13;2.70;;;;;;;29.36;38.78;99733.38;5093462;28;20044;-81
2021/07/03 12:45:35;;;;;;;11.20;3.75;;;;;;;29.61;38.22;99723.56;5094738;28;20044;-82
2021/07/03 12:48:14;;;;;;;4.78;3.17;;;;;;;29.42;38.62;99719.09;5092600;28;20577;-81
2021/07/03 12:50:56;;;;;;;7.15;2.92;;;;;;;29.35;39.32;99718.25;5092745;28;20044;-82
2021/07/03 12:53:31;;;;;;;7.10;2.97;;;;;;;29.27;39.08;99726.56;5076284;28;20044;-81
2021/07/03 12:55:59;;;;;;;5.78;2.92;;;;;;;29.45;38.26;99718.66;5096853;28;20051;-81
2021/07/03 12:58:33;;;;;;;3.38;2.83;;;;;;;29.75;38.33;99709.06;5097934;28;20447;-80
2021/07/03 13:01:07;;;;;;;6.82;3.92;;;;;;;29.66;38.67;99698.75;5097883;28;20107;-81
2021/07/03 13:03:34;;;;;;;5.03;3.42;;;;;;;29.59;38.63;99698.81;5096651;28;20032;-81
2021/07/03 13:06:06;;;;;;;4.60;3.17;;;;;;;29.60;38.02;99700.44;5097510;28;20040;-83
2021/07/03 13:16:36;;;;;;;3.72;3.10;;;;;;;29.52;38.11;99691.78;5097846;28;20047;-83
2021/07/03 13:23:40;;;;;;;9.65;3.03;;;;;;;30.01;37.09;99691.13;5097636;28;20091;-82
2021/07/03 13:26:10;;;;;;;3.05;2.75;;;;;;;29.94;36.78;99690.38;5097644;28;20082;-81
2021/07/03 13:28:40;;;;;;;3.13;2.53;;;;;;;30.03;36.72;99683.66;5096208;28;20040;-84
2021/07/03 13:31:07;;;;;;;7.22;3.17;;;;;;;30.00;36.66;99684.13;5097121;28;20490;-82
2021/07/03 13:33:36;;;;;;;7.57;2.80;;;;;;;29.87;37.31;99682.31;5079202;28;20432;-80
2021/07/03 13:36:03;;;;;;;10.32;3.05;;;;;;;29.95;36.50;99686.63;5095852;28;20074;-81
2021/07/03 13:38:31;;;;;;;5.13;2.78;;;;;;;29.75;37.11;99690.25;5097696;28;20044;-82
2021/07/03 13:40:58;;;;;;;4.88;2.75;;;;;;;29.68;36.92;99681.41;5097337;28;20390;-81
2021/07/03 13:43:26;;;;;;;6.35;2.92;;;;;;;29.86;36.51;99686.06;5095911;28;20105;-83
2021/07/03 13:45:53;;;;;;;8.70;3.00;;;;;;;29.90;37.14;99681.09;5078959;28;20064;-82
2021/07/03 13:48:21;;;;;;;4.80;3.28;;;;;;;29.93;37.35;99684.13;5097916;28;20525;-81
2021/07/03 13:55:25;;;;;;;7.22;3.50;;;;;;;30.27;35.92;99674.84;5097320;28;20127;-84
2021/07/03 13:57:52;;;;;;;5.82;3.08;;;;;;;30.22;36.25;99677.38;5079180;28;20048;-81
2021/07/03 14:04:19;;;;;;;4.45;2.80;;;;;;;30.45;35.87;99670.56;5097001;28;20047;-85
2021/07/03 14:10:45;;;;;;;4.85;2.40;;;;;;;30.21;35.86;99675.72;5096534;28;20078;-80
2021/07/03 14:13:12;;;;;;;6.53;2.58;;;;;;;30.07;35.99;99662.56;5096183;28;20101;-79
2021/07/03 14:15:40;;;;;;;4.22;2.70;;;;;;;30.16;35.43;99655.94;5078058;28;20543;-79
2021/07/03 14:18:07;;;;;;;3.40;2.67;;;;;;;30.24;35.63;99667.22;5096028;28;20040;-79
2021/07/03 14:20:36;;;;;;;3.97;2.97;;;;;;;30.22;35.13;99661.25;5095038;28;20600;-79
2021/07/03 14:23:04;;;;;;;5.35;2.53;;;;;;;30.24;35.45;99652.94;5095969;28;20048;-79
2021/07/03 14:25:31;;;;;;;7.57;2.78;;;;;;;30.35;35.40;99644.16;5094752;28;20042;-80
2021/07/03 14:28:04;;;;;;;6.47;3.92;;;;;;;30.49;35.21;99658.34;5094694;28;20379;-79
2021/07/03 14:30:33;;;;;;;7.80;2.60;;;;;;;30.44;35.17;99644.72;5096376;28;20060;-79
2021/07/03 14:37:26;;;;;;;5.10;3.22;;;;;;;30.20;35.20;99639.16;5096143;28;20050;-80
2021/07/03 14:39:53;;;;;;;2.70;2.47;;;;;;;30.24;35.19;99631.44;5097209;28;20055;-80
2021/07/03 14:46:19;;;;;;;5.65;3.00;;;;;;;30.41;34.77;99616.41;5102071;28;20055;-80
2021/07/03 14:52:46;;;;;;;6.18;2.85;;;;;;;30.44;34.84;99617.84;5112602;28;20051;-78
2021/07/03 14:55:13;;;;;;;8.82;3.50;;;;;;;30.51;34.87;99613.22;5103045;28;20039;-78
2021/07/03 14:57:42;;;;;;;2.85;2.40;;;;;;;30.41;34.86;99610.19;5084488;28;20040;-78
2021/07/03 15:00:09;;;;;;;6.95;3.30;;;;;;;30.35;34.94;99613.78;5098573;28;20549;-78
2021/07/03 15:02:36;;;;;;;5.28;2.83;;;;;;;30.43;34.77;99603.56;5077968;28;20124;-79
2021/07/03 15:09:03;;;;;;;13.00;3.00;;;;;;;30.50;34.60;99607.00;5095772;28;20114;-79
2021/07/03 15:11:30;;;;;;;7.88;3.28;;;;;;;30.46;34.59;99600.41;5076926;28;20558;-80
2021/07/03 15:13:57;;;;;;;3.83;2.63;;;;;;;30.53;34.81;99603.88;5094215;28;20040;-79
2021/07/03 15:20:24;;;;;;;3.67;3.00;;;;;;;30.53;34.41;99597.69;5094938;28;20405;-79
2021/07/03 15:22:51;;;;;;;5.80;2.95;;;;;;;30.58;34.98;99595.16;5093546;28;20452;-80
2021/07/03 15:29:44;;;;;;;8.23;2.90;;;;;;;30.58;35.07;99595.16;5094980;28;20443;-79
2021/07/03 15:32:12;;;;;;;4.97;2.72;;;;;;;30.42;35.04;99606.50;5094460;28;20044;-78
2021/07/03 15:34:39;;;;;;;6.85;2.70;;;;;;;30.45;35.25;99593.41;5093548;28;20075;-79
2021/07/03 15:41:07;;;;;;;4.13;2.55;;;;;;;30.41;34.88;99604.81;5095071;28;20486;-79
2021/07/03 15:43:37;;;;;;;5.30;2.55;;;;;;;30.48;34.75;99602.91;5077199;28;20040;-79
2021/07/03 15:50:07;;;;;;;6.22;2.60;;;;;;;30.50;35.34;99592.75;5094530;28;20136;-78
2021/07/03 15:56:33;;;;;;;6.35;2.90;;;;;;;30.37;35.08;99587.50;5094381;28;20108;-79
2021/07/03 15:59:00;;;;;;;5.18;2.78;;;;;;;30.34;35.58;99582.56;5094332;28;20487;-79
2021/07/03 16:01:28;;;;;;;5.00;2.75;;;;;;;30.33;35.10;99575.53;5076200;28;20574;-79
2021/07/03 16:03:55;;;;;;;3.03;2.30;;;;;;;30.26;35.24;99581.81;5076160;28;20568;-79
2021/07/03 16:06:23;;;;;;;5.53;2.90;;;;;;;30.39;35.57;99574.66;5094100;28;20037;-78
2021/07/03 16:08:50;;;;;;;5.75;2.60;;;;;;;30.35;35.08;99570.75;5093872;28;20055;-79
2021/07/03 16:11:17;;;;;;;3.50;2.50;;;;;;;30.32;35.16;99569.34;5093498;28;20083;-78
2021/07/03 16:17:47;;;;;;;3.20;2.50;;;;;;;30.40;35.44;99568.22;5094580;28;20456;-79
2021/07/03 16:20:15;;;;;;;3.13;2.80;;;;;;;30.27;35.42;99567.31;5092682;28;20046;-80
2021/07/03 16:22:42;;;;;;;10.07;2.47;;;;;;;30.29;35.73;99563.59;5093747;28;20126;-79
2021/07/03 16:25:10;;;;;;;5.15;2.60;;;;;;;30.26;35.70;99552.25;5093982;28;20067;-79
2021/07/03 16:27:37;;;;;;;5.75;2.67;;;;;;;30.26;35.58;99560.31;5094312;28;20044;-79
2021/07/03 16:30:05;;;;;;;4.10;3.10;;;;;;;30.12;35.82;99555.25;5092050;28;20130;-79
2021/07/03 16:32:33;;;;;;;5.05;3.00;;;;;;;29.94;36.30;99553.34;5093565;28;20044;-79
2021/07/03 16:39:26;;;;;;;5.40;2.20;;;;;;;30.16;36.13;99546.53;5093745;28;20078;-79
2021/07/03 16:42:11;;;;;;;6.70;2.67;;;;;;;30.13;36.61;99543.47;5052060;28;20490;-79
2021/07/03 16:48:37;;;;;;;4.82;2.92;;;;;;;30.01;36.31;99549.53;5093833;28;20058;-79
2021/07/03 16:51:04;;;;;;;4.53;2.90;;;;;;;30.09;36.23;99548.41;5075564;28;20131;-78
2021/07/03 16:53:31;;;;;;;6.65;2.40;;;;;;;30.09;36.24;99548.41;5093701;28;20044;-78
2021/07/03 16:55:58;;;;;;;7.82;3.17;;;;;;;30.13;36.41;99548.84;5092540;28;20036;-78
2021/07/03 16:58:27;;;;;;;6.53;2.78;;;;;;;30.06;36.61;99548.88;5092262;28;20457;-77
2021/07/03 17:04:54;;;;;;;7.20;2.45;;;;;;;29.92;38.54;99550.03;5093661;28;20047;-78
2021/07/03 17:07:21;;;;;;;11.00;2.33;;;;;;;29.91;38.73;99557.25;5075191;28;20093;-78
2021/07/03 17:09:48;;;;;;;11.85;2.83;;;;;;;29.83;38.84;99551.31;5074989;28;20063;-80
2021/07/03 17:12:16;;;;;;;8.65;2.33;;;;;;;29.86;38.88;99556.28;5075355;28;20124;-79
2021/07/03 17:14:44;;;;;;;4.45;2.15;;;;;;;29.71;38.64;99554.72;5075045;28;20058;-79
2021/07/03 17:17:11;;;;;;;4.60;2.33;;;;;;;29.76;38.91;99556.75;5075302;28;20055;-79
2021/07/03 17:19:38;;;;;;;10.00;3.30;;;;;;;29.62;38.78;99548.00;5091678;28;20097;-78
2021/07/03 17:26:31;;;;;;;5.27;2.10;;;;;;;29.48;39.51;99562.50;5093079;28;20039;-78
2021/07/03 17:29:01;;;;;;;4.35;2.50;;;;;;;29.48;39.52;99554.44;5093088;28;20048;-80
2021/07/03 17:35:27;;;;;;;6.07;2.28;;;;;;;29.42;39.53;99564.19;5093444;28;20105;-77
2021/07/03 17:41:53;;;;;;;7.22;2.25;;;;;;;29.36;39.57;99542.75;5094531;28;20109;-78
2021/07/03 17:44:20;;;;;;;4.82;1.92;;;;;;;29.32;39.65;99536.16;5096788;28;20402;-78